Time;durP1;ratioP1;P1;durP2;ratioP2;P2;SDS_P1;SDS_P2;PMS_P1;PMS_P2;Temp;Humidity;BMP_temperature;BMP_pressure;BME280_temperature;BME280_humidity;BME280_pressure;Samples;Min_cycle;Max_cycle;Signal;HPM_P1;HPM_P2
2022/01/26 00:07:04;;;;;;;50.35;18.20;;;;;;;3.37;78.42;103349.31;5034576;28;20036;-70
2022/01/26 00:09:29;;;;;;;48.20;17.70;;;;;;;3.37;77.00;103344.22;5032427;28;20034;-70
2022/01/26 00:11:55;;;;;;;40.92;16.33;;;;;;;3.29;77.21;103341.19;5034271;28;20418;-71
2022/01/26 00:14:20;;;;;;;46.00;15.93;;;;;;;3.28;78.23;103334.41;5032389;28;20529;-70
2022/01/26 00:16:47;;;;;;;51.08;17.40;;;;;;;3.40;77.20;103333.81;5032308;28;20140;-69
2022/01/26 00:19:19;;;;;;;46.38;17.60;;;;;;;3.35;76.28;103334.03;5031792;28;20117;-69
2022/01/26 00:21:51;;;;;;;48.07;16.60;;;;;;;3.28;76.84;103302.03;5032164;28;20070;-69
2022/01/26 00:29:25;;;;;;;38.38;15.32;;;;;;;3.30;76.61;103307.06;5033305;28;20040;-69
2022/01/26 00:40:18;;;;;;;44.67;16.52;;;;;;;3.51;76.54;103302.59;5034157;28;20036;-70
2022/01/26 00:42:46;;;;;;;45.10;17.10;;;;;;;3.65;75.58;103310.38;5033640;28;20511;-69
2022/01/26 00:45:11;;;;;;;42.75;16.58;;;;;;;3.35;75.47;103294.88;5033785;28;20021;-70
2022/01/26 00:47:37;;;;;;;46.38;15.32;;;;;;;3.39;76.07;103287.00;5031839;28;20025;-69
2022/01/26 00:50:07;;;;;;;40.85;16.10;;;;;;;3.37;75.98;103290.53;5031627;28;20047;-70
2022/01/26 00:52:45;;;;;;;39.88;15.32;;;;;;;3.43;75.60;103289.38;5031973;28;20029;-70
2022/01/26 00:55:14;;;;;;;42.00;16.35;;;;;;;3.52;75.41;103294.03;5031969;28;20112;-70
2022/01/26 00:57:40;;;;;;;37.63;14.98;;;;;;;3.43;75.26;103294.50;5033799;28;20030;-70
2022/01/26 01:00:14;;;;;;;43.40;17.15;;;;;;;3.41;76.35;103301.41;5031903;28;20025;-70
2022/01/26 01:02:39;;;;;;;47.00;17.55;;;;;;;3.46;76.79;103297.72;5033212;28;20032;-69
2022/01/26 01:05:13;;;;;;;51.50;17.42;;;;;;;3.44;76.50;103291.84;5031806;28;20017;-69
2022/01/26 01:07:40;;;;;;;45.75;17.80;;;;;;;3.54;75.50;103293.03;5033151;28;20385;-70
2022/01/26 01:10:06;;;;;;;45.17;17.45;;;;;;;3.50;75.06;103288.97;5036244;28;20017;-70
2022/01/26 01:12:38;;;;;;;48.88;18.20;;;;;;;3.22;76.84;103288.72;5037480;28;20112;-70
2022/01/26 01:15:03;;;;;;;46.50;16.42;;;;;;;3.39;76.67;103286.13;5035630;28;20404;-70
2022/01/26 01:17:36;;;;;;;45.65;16.52;;;;;;;3.43;75.69;103277.44;5037352;28;20040;-70
2022/01/26 01:20:34;;;;;;;41.30;16.65;;;;;;;3.29;75.97;103261.97;5036780;28;20025;-69
2022/01/26 01:28:13;;;;;;;52.30;18.40;;;;;;;2.82;78.87;103247.28;5037219;28;20036;-69
2022/01/26 01:30:43;;;;;;;54.33;19.85;;;;;;;3.03;77.72;103246.22;5037050;28;20029;-69
2022/01/26 01:33:13;;;;;;;52.35;19.08;;;;;;;3.05;78.08;103256.34;5035408;28;20049;-70
2022/01/26 01:35:41;;;;;;;53.97;18.95;;;;;;;2.82;77.79;103227.69;5037247;28;20029;-70
2022/01/26 01:38:09;;;;;;;48.35;18.15;;;;;;;3.09;77.09;103266.34;5035622;28;20025;-70
2022/01/26 01:40:37;;;;;;;54.67;19.42;;;;;;;3.13;76.92;103257.63;5036565;28;20151;-69
2022/01/26 01:43:03;;;;;;;44.03;18.60;;;;;;;2.89;77.65;103246.91;5036409;28;20493;-70
2022/01/26 01:45:45;;;;;;;48.80;18.52;;;;;;;2.80;78.09;103244.00;5036632;28;20028;-69
2022/01/26 01:48:13;;;;;;;50.97;19.38;;;;;;;2.98;78.51;103247.34;5036282;28;20025;-70
2022/01/26 01:50:41;;;;;;;57.10;19.15;;;;;;;2.83;78.97;103252.31;5035559;28;20439;-69
2022/01/26 01:53:11;;;;;;;54.28;19.80;;;;;;;3.02;77.92;103249.69;5036922;28;20017;-70
2022/01/26 01:55:42;;;;;;;53.60;19.25;;;;;;;2.70;78.68;103243.59;5036315;28;20488;-70
2022/01/26 01:58:09;;;;;;;55.72;19.77;;;;;;;2.75;79.13;103230.63;5036260;28;20029;-70
2022/01/26 02:00:36;;;;;;;59.72;19.73;;;;;;;2.75;78.78;103225.50;5036171;28;20021;-70
2022/01/26 02:03:01;;;;;;;51.08;19.02;;;;;;;2.77;79.29;103224.53;5034918;28;20068;-70
2022/01/26 02:05:27;;;;;;;49.50;18.92;;;;;;;2.77;78.83;103216.88;5034730;28;20433;-70
2022/01/26 02:07:52;;;;;;;53.72;19.77;;;;;;;2.89;78.54;103212.88;5035572;28;20072;-70
2022/01/26 02:10:20;;;;;;;53.85;19.23;;;;;;;2.87;78.65;103207.03;5034657;28;20388;-70
2022/01/26 02:12:49;;;;;;;54.28;19.50;;;;;;;2.66;78.34;103176.56;5035978;28;20099;-71
2022/01/26 02:15:20;;;;;;;57.53;19.80;;;;;;;2.73;78.52;103202.59;5034298;28;20049;-70
2022/01/26 02:18:10;;;;;;;59.03;19.52;;;;;;;2.30;79.32;103163.84;5034582;28;20357;-70
2022/01/26 03:06:40;;;;;;;65.75;22.90;;;;;;;3.03;78.40;103144.03;5035077;28;20065;-69
2022/01/26 03:09:11;;;;;;;65.53;23.23;;;;;;;2.88;78.91;103130.34;5035094;28;20025;-70
2022/01/26 03:11:39;;;;;;;63.88;22.38;;;;;;;2.77;79.60;103139.44;5033523;28;20115;-70
2022/01/26 03:14:20;;;;;;;66.70;23.23;;;;;;;2.64;80.48;103155.38;5033419;28;20399;-70
2022/01/26 03:16:52;;;;;;;66.50;23.98;;;;;;;2.85;79.14;103130.50;5033272;28;20068;-71
2022/01/26 03:19:25;;;;;;;70.93;25.80;;;;;;;2.98;78.74;103140.88;5033366;28;20476;-71
2022/01/26 03:29:58;;;;;;;73.72;25.92;;;;;;;3.14;78.26;103154.53;5034953;28;20087;-69
2022/01/26 03:34:57;;;;;;;69.70;26.15;;;;;;;3.02;78.65;103147.50;5035166;28;20037;-69
2022/01/26 03:37:28;;;;;;;74.60;26.67;;;;;;;2.76;79.76;103145.44;5032890;28;20018;-69
2022/01/26 03:39:54;;;;;;;79.32;27.15;;;;;;;2.83;79.91;103141.69;5032929;28;20388;-70
2022/01/26 03:42:20;;;;;;;76.53;28.85;;;;;;;2.94;79.25;103136.84;5034137;28;20022;-70
2022/01/26 03:44:45;;;;;;;76.10;27.02;;;;;;;2.85;79.54;103133.06;5034332;28;20037;-71
2022/01/26 03:47:11;;;;;;;78.63;28.38;;;;;;;2.85;79.47;103129.66;5033073;28;20047;-70
2022/01/26 03:49:37;;;;;;;76.40;27.80;;;;;;;3.10;79.21;103121.53;5033992;28;20029;-70
2022/01/26 03:52:03;;;;;;;80.68;29.05;;;;;;;2.92;79.79;103131.81;5034472;28;20384;-70
2022/01/26 03:54:29;;;;;;;76.13;28.77;;;;;;;3.09;79.35;103148.81;5033949;28;20021;-70
2022/01/26 03:56:54;;;;;;;83.03;29.75;;;;;;;3.17;79.10;103149.25;5033916;28;20036;-70
2022/01/26 03:59:19;;;;;;;86.78;32.15;;;;;;;3.31;77.76;103140.88;5032588;28;20056;-70
2022/01/26 04:01:45;;;;;;;83.68;30.08;;;;;;;3.33;78.33;103168.88;5033844;28;20053;-71
2022/01/26 04:04:10;;;;;;;84.47;31.48;;;;;;;3.21;79.13;103172.91;5033809;28;20029;-70
2022/01/26 04:06:36;;;;;;;84.50;31.77;;;;;;;3.27;78.62;103194.75;5034196;28;20029;-70
2022/01/26 04:09:05;;;;;;;91.57;34.33;;;;;;;3.30;78.97;103197.16;5032343;28;20060;-70
2022/01/26 04:11:36;;;;;;;88.30;32.78;;;;;;;3.34;78.76;103196.13;5032363;28;20041;-70
2022/01/26 04:14:06;;;;;;;94.45;34.67;;;;;;;3.42;78.41;103204.19;5032379;28;20025;-69
2022/01/26 04:16:32;;;;;;;97.68;34.25;;;;;;;3.40;79.08;103200.91;5032271;28;20511;-70
2022/01/26 04:18:57;;;;;;;93.60;35.47;;;;;;;3.42;78.64;103193.97;5033517;28;20022;-71
2022/01/26 04:23:57;;;;;;;87.63;34.10;;;;;;;3.54;78.73;103202.72;5033801;28;20044;-70
2022/01/26 04:26:30;;;;;;;90.88;35.38;;;;;;;3.50;79.16;103196.94;5032167;28;20025;-70
2022/01/26 04:29:01;;;;;;;89.85;34.67;;;;;;;3.43;78.93;103174.34;5033490;28;20053;-70
2022/01/26 04:31:26;;;;;;;89.78;35.05;;;;;;;3.32;79.28;103157.03;5033721;28;20032;-69
2022/01/26 04:33:53;;;;;;;97.72;36.03;;;;;;;3.13;78.55;103129.03;5033459;28;20022;-70
2022/01/26 04:36:28;;;;;;;98.63;34.60;;;;;;;3.25;79.61;103141.19;5033324;28;20035;-71
2022/01/26 04:38:59;;;;;;;89.95;34.42;;;;;;;3.33;78.74;103143.31;5032098;28;20028;-70
2022/01/26 04:43:53;;;;;;;97.75;35.83;;;;;;;3.31;79.07;103134.91;5033079;28;20450;-70
2022/01/26 04:46:18;;;;;;;95.82;35.70;;;;;;;3.06;79.52;103108.09;5033254;28;20025;-70
2022/01/26 04:48:43;;;;;;;96.05;35.75;;;;;;;3.35;79.48;103134.69;5033226;28;20124;-71
2022/01/26 04:51:09;;;;;;;102.20;37.60;;;;;;;3.32;79.47;103127.16;5033751;28;20084;-70
2022/01/26 04:53:34;;;;;;;98.82;36.00;;;;;;;3.24;80.70;103123.38;5031831;28;20022;-71
2022/01/26 04:55:59;;;;;;;98.72;36.05;;;;;;;3.35;79.83;103137.22;5033151;28;20037;-70
2022/01/26 04:58:25;;;;;;;106.38;36.78;;;;;;;3.36;79.84;103132.94;5033395;28;20024;-70
2022/01/26 05:00:50;;;;;;;100.13;37.28;;;;;;;3.41;80.22;103127.59;5031878;28;20018;-70
2022/01/26 05:03:16;;;;;;;100.45;36.72;;;;;;;3.34;80.17;103127.94;5031806;28;20112;-69
2022/01/26 05:05:41;;;;;;;105.82;36.90;;;;;;;3.40;80.25;103119.09;5031798;28;20506;-69
2022/01/26 05:08:06;;;;;;;99.82;34.88;;;;;;;3.22;80.68;103117.50;5032919;28;20075;-70
2022/01/26 05:10:32;;;;;;;102.35;36.75;;;;;;;3.28;81.07;103125.69;5031753;28;20030;-69
2022/01/26 05:12:57;;;;;;;101.72;36.22;;;;;;;3.30;81.01;103112.81;5032976;28;20388;-70
2022/01/26 05:15:24;;;;;;;107.30;37.45;;;;;;;3.41;81.01;103107.16;5040992;28;20132;-70
2022/01/26 05:17:50;;;;;;;107.97;36.40;;;;;;;3.21;81.08;103098.81;5037882;28;20096;-71
2022/01/26 05:20:16;;;;;;;108.53;37.33;;;;;;;3.25;81.80;103104.56;5036763;28;20047;-70
2022/01/26 05:22:44;;;;;;;103.10;35.58;;;;;;;3.25;82.02;103100.31;5052814;28;20048;-71
2022/01/26 05:25:11;;;;;;;106.70;37.67;;;;;;;3.25;82.04;103104.56;5053078;28;20074;-70
2022/01/26 05:27:37;;;;;;;105.93;35.95;;;;;;;3.33;81.66;103110.91;5052619;28;20339;-70
2022/01/26 05:30:03;;;;;;;109.25;36.88;;;;;;;3.38;81.50;103095.34;5052799;28;20100;-69
2022/01/26 05:32:29;;;;;;;111.85;37.50;;;;;;;3.29;81.95;103106.91;5052657;28;20491;-70
2022/01/26 05:34:54;;;;;;;110.85;37.15;;;;;;;3.28;82.93;103123.16;5053262;28;20029;-70
2022/01/26 05:37:19;;;;;;;105.75;36.25;;;;;;;3.29;82.20;103116.28;5052633;28;20032;-70
2022/01/26 05:39:45;;;;;;;108.55;37.97;;;;;;;3.23;82.56;103137.06;5052698;28;20021;-70
2022/01/26 05:42:10;;;;;;;109.00;38.15;;;;;;;3.35;82.63;103137.22;5052643;28;20064;-70
2022/01/26 05:44:36;;;;;;;116.20;38.17;;;;;;;3.18;82.99;103119.41;5053080;28;20467;-70
2022/01/26 05:47:03;;;;;;;115.85;37.90;;;;;;;3.38;82.64;103119.16;5052736;28;20060;-69
2022/01/26 05:49:29;;;;;;;114.55;37.63;;;;;;;3.32;82.65;103123.78;5034600;28;20043;-70
2022/01/26 05:51:54;;;;;;;107.45;35.60;;;;;;;3.29;82.85;103126.53;5035043;28;20111;-69
2022/01/26 05:54:19;;;;;;;104.85;35.28;;;;;;;3.30;83.01;103123.03;5034725;28;20485;-70
2022/01/26 05:56:47;;;;;;;109.55;34.92;;;;;;;3.17;83.22;103113.47;5036648;28;20526;-70
2022/01/26 05:59:20;;;;;;;108.93;36.95;;;;;;;3.25;83.56;103130.13;5055860;28;20021;-70
2022/01/26 06:01:46;;;;;;;110.85;36.78;;;;;;;3.39;83.29;103130.22;5055986;28;20099;-70
2022/01/26 06:04:11;;;;;;;108.47;36.35;;;;;;;3.24;83.55;103121.63;5056503;28;20033;-71
2022/01/26 06:06:37;;;;;;;108.00;36.70;;;;;;;3.38;82.86;103121.72;5055693;28;20017;-68
2022/01/26 06:09:02;;;;;;;104.53;35.75;;;;;;;3.24;84.53;103115.72;5038445;28;20036;-70
2022/01/26 06:11:27;;;;;;;109.93;35.72;;;;;;;3.16;84.31;103098.22;5038626;28;20037;-67
2022/01/26 06:13:55;;;;;;;106.88;36.90;;;;;;;3.28;84.30;103114.63;5062135;28;20178;-69
2022/01/26 06:16:20;;;;;;;105.68;36.58;;;;;;;3.17;84.85;103103.25;5047625;28;20051;-70
2022/01/26 06:18:45;;;;;;;111.40;36.22;;;;;;;3.26;85.04;103098.56;5066874;28;20066;-68
2022/01/26 06:21:10;;;;;;;115.93;37.13;;;;;;;3.25;85.14;103087.53;5068092;28;20024;-66
2022/01/26 06:23:36;;;;;;;107.53;36.63;;;;;;;3.13;85.38;103090.72;5050392;28;20075;-66
2022/01/26 06:26:02;;;;;;;109.30;35.45;;;;;;;3.22;85.23;103091.97;5067767;28;20024;-69
2022/01/26 06:28:27;;;;;;;114.78;36.22;;;;;;;3.22;85.35;103087.66;5067765;28;20017;-68
2022/01/26 06:31:00;;;;;;;111.03;36.45;;;;;;;3.23;85.82;103096.19;5050478;28;20451;-67
2022/01/26 06:33:26;;;;;;;115.05;37.88;;;;;;;3.12;86.14;103102.69;5045971;28;20029;-67
2022/01/26 06:35:52;;;;;;;113.63;36.67;;;;;;;3.21;86.26;103096.25;5041496;28;20354;-67
2022/01/26 06:38:17;;;;;;;114.63;38.55;;;;;;;3.24;85.91;103106.31;5057733;28;20100;-66
2022/01/26 06:40:43;;;;;;;111.65;37.22;;;;;;;3.22;86.24;103097.88;5056973;28;20021;-65
2022/01/26 06:43:14;;;;;;;113.80;36.83;;;;;;;3.24;86.73;103101.19;5038983;28;20027;-66
2022/01/26 06:45:54;;;;;;;114.15;37.28;;;;;;;3.23;86.97;103103.84;5056774;28;20021;-65
2022/01/26 06:51:00;;;;;;;106.47;36.13;;;;;;;3.24;86.33;103131.03;5055430;28;20032;-65
2022/01/26 06:53:26;;;;;;;108.68;36.88;;;;;;;3.31;86.60;103132.34;5038179;28;20428;-66
2022/01/26 06:55:51;;;;;;;103.40;35.22;;;;;;;3.29;86.82;103134.19;5056139;28;20051;-66
2022/01/26 06:58:17;;;;;;;103.30;34.30;;;;;;;3.45;86.76;103135.00;5037723;28;20036;-65
2022/01/26 07:00:43;;;;;;;110.55;35.65;;;;;;;3.56;85.58;103124.19;5055484;28;20471;-65
2022/01/26 07:03:08;;;;;;;105.20;34.30;;;;;;;3.49;86.17;103122.91;5055158;28;20029;-65
2022/01/26 07:05:33;;;;;;;102.80;34.47;;;;;;;3.44;86.38;103122.31;5037461;28;20029;-66
2022/01/26 07:07:59;;;;;;;109.18;36.70;;;;;;;3.53;86.55;103129.47;5054588;28;20285;-65
2022/01/26 07:10:24;;;;;;;116.45;36.65;;;;;;;3.58;87.05;103122.38;5055407;28;20025;-65
2022/01/26 07:12:50;;;;;;;112.72;36.40;;;;;;;3.60;86.59;103135.94;5054930;28;20064;-65
2022/01/26 07:23:38;;;;;;;94.22;33.15;;;;;;;3.48;86.88;103159.56;5054751;28;20028;-65
2022/01/26 07:26:03;;;;;;;97.60;33.72;;;;;;;3.46;86.27;103153.75;5054334;28;20029;-69
2022/01/26 07:28:34;;;;;;;85.22;31.45;;;;;;;3.56;85.17;103158.25;5054342;28;20082;-66
2022/01/26 07:31:00;;;;;;;85.70;31.10;;;;;;;3.52;84.61;103156.78;5054835;28;20020;-66
2022/01/26 07:33:25;;;;;;;72.97;28.73;;;;;;;3.55;84.56;103158.34;5054406;28;20379;-65
2022/01/26 07:35:50;;;;;;;73.40;29.30;;;;;;;3.57;84.23;103152.25;5054161;28;20463;-65
2022/01/26 07:38:16;;;;;;;66.85;25.90;;;;;;;3.46;83.21;103149.44;5055845;28;20024;-66
2022/01/26 07:40:42;;;;;;;66.95;27.40;;;;;;;3.56;84.16;103162.53;5036899;28;20032;-65
2022/01/26 07:43:07;;;;;;;69.32;25.98;;;;;;;3.28;83.24;103138.47;5054041;28;20146;-66
2022/01/26 07:45:32;;;;;;;65.32;26.67;;;;;;;3.54;83.14;103154.97;5035292;28;20017;-66
2022/01/26 07:47:58;;;;;;;64.50;26.73;;;;;;;3.58;82.12;103159.00;5052585;28;20017;-66
2022/01/26 07:50:23;;;;;;;70.72;27.48;;;;;;;3.73;81.78;103161.63;5052414;28;20077;-66
2022/01/26 07:52:49;;;;;;;65.03;26.67;;;;;;;3.51;82.61;103141.50;5034964;28;20032;-67
2022/01/26 07:55:17;;;;;;;65.70;26.70;;;;;;;3.52;82.87;103156.78;5052961;28;20048;-65
2022/01/26 07:57:44;;;;;;;70.60;27.75;;;;;;;3.48;83.65;103145.09;5052818;28;20066;-65
2022/01/26 08:00:10;;;;;;;75.15;27.95;;;;;;;3.65;82.70;103166.34;5053789;28;20036;-67
2022/01/26 08:02:36;;;;;;;68.90;27.85;;;;;;;3.57;82.77;103169.34;5054263;28;20035;-66
2022/01/26 08:05:01;;;;;;;72.70;27.08;;;;;;;3.57;83.12;103167.59;5035800;28;20383;-66
2022/01/26 08:07:27;;;;;;;71.97;28.08;;;;;;;3.53;83.12;103158.41;5053762;28;20380;-66
2022/01/26 08:09:52;;;;;;;70.00;27.85;;;;;;;3.73;82.44;103148.84;5054216;28;20040;-67
2022/01/26 08:12:18;;;;;;;71.78;27.88;;;;;;;3.72;82.48;103149.78;5052299;28;20029;-66
2022/01/26 08:14:44;;;;;;;68.53;27.92;;;;;;;3.65;82.84;103151.00;5035354;28;20447;-65
2022/01/26 08:17:11;;;;;;;75.88;29.00;;;;;;;3.43;82.98;103108.72;5053461;28;20095;-66
2022/01/26 08:19:36;;;;;;;72.75;28.63;;;;;;;3.72;82.55;103152.34;5052030;28;20028;-66
2022/01/26 08:22:02;;;;;;;72.80;28.67;;;;;;;3.64;83.43;103155.28;5034779;28;20456;-66
2022/01/26 08:24:29;;;;;;;73.75;28.10;;;;;;;3.79;82.98;103151.06;5034579;28;20110;-68
2022/01/26 08:26:58;;;;;;;76.40;29.25;;;;;;;3.83;82.26;103150.00;5052786;28;20087;-65
2022/01/26 08:32:07;;;;;;;72.90;28.83;;;;;;;3.93;81.92;103143.47;5052839;28;20392;-66
2022/01/26 08:34:33;;;;;;;69.80;27.10;;;;;;;3.68;82.68;103135.47;5034652;28;20036;-67
2022/01/26 08:36:58;;;;;;;67.85;27.35;;;;;;;3.64;82.71;103139.13;5053421;28;20029;-66
2022/01/26 08:39:23;;;;;;;73.53;28.75;;;;;;;3.82;82.05;103145.78;5035458;28;20103;-66
2022/01/26 08:41:49;;;;;;;75.75;28.15;;;;;;;3.44;82.52;103092.47;5035473;28;20020;-68
2022/01/26 08:44:15;;;;;;;77.60;28.15;;;;;;;3.84;82.60;103149.91;5053805;28;20367;-66
2022/01/26 08:46:40;;;;;;;77.82;27.98;;;;;;;3.75;83.24;103152.16;5035456;28;20388;-66
2022/01/26 08:49:06;;;;;;;73.57;28.15;;;;;;;3.70;82.83;103146.47;5053183;28;20028;-67
2022/01/26 08:51:32;;;;;;;71.45;28.25;;;;;;;3.82;83.37;103163.69;5035384;28;20028;-66
2022/01/26 08:53:57;;;;;;;70.65;27.30;;;;;;;3.78;83.14;103175.81;5053232;28;20111;-68
2022/01/26 08:56:23;;;;;;;66.50;25.58;;;;;;;3.88;82.71;103167.66;5035346;28;20052;-67
2022/01/26 08:58:48;;;;;;;66.80;26.60;;;;;;;3.83;82.65;103173.84;5053155;28;20033;-67
2022/01/26 09:01:13;;;;;;;67.10;25.02;;;;;;;3.73;83.17;103172.69;5053251;28;20029;-67
2022/01/26 09:03:39;;;;;;;68.68;25.33;;;;;;;3.82;83.44;103169.63;5035237;28;20387;-69
2022/01/26 09:06:08;;;;;;;67.10;27.10;;;;;;;3.79;82.51;103161.31;5052968;28;20043;-68
2022/01/26 09:08:35;;;;;;;66.25;26.05;;;;;;;3.95;82.57;103163.84;5034458;28;20024;-66
2022/01/26 09:11:02;;;;;;;60.72;25.08;;;;;;;3.92;82.56;103158.91;5035235;28;20028;-66
2022/01/26 09:13:32;;;;;;;63.55;26.40;;;;;;;4.02;81.60;103160.03;5035162;28;20418;-68
2022/01/26 09:16:00;;;;;;;66.82;24.63;;;;;;;3.94;82.73;103150.25;5034981;28;20055;-67
2022/01/26 09:18:38;;;;;;;59.38;23.90;;;;;;;3.96;83.31;103152.69;5053035;28;20096;-66
2022/01/26 09:21:05;;;;;;;65.65;24.33;;;;;;;4.00;82.23;103155.00;5052658;28;20032;-65
2022/01/26 09:23:30;;;;;;;59.03;23.27;;;;;;;4.05;82.46;103150.44;5052488;28;20111;-67
2022/01/26 09:25:55;;;;;;;61.53;25.05;;;;;;;4.15;81.89;103152.50;5052845;28;20147;-65
2022/01/26 09:28:22;;;;;;;61.45;22.90;;;;;;;4.14;80.91;103140.59;5034963;28;20090;-65
2022/01/26 09:30:48;;;;;;;63.00;22.98;;;;;;;4.00;82.00;103138.81;5055464;28;20028;-66
2022/01/26 09:33:13;;;;;;;65.47;24.40;;;;;;;3.94;82.58;103144.28;5056653;28;20479;-65
2022/01/26 09:35:38;;;;;;;60.13;23.17;;;;;;;4.07;83.11;103145.25;5056574;28;20079;-66
2022/01/26 09:38:04;;;;;;;57.55;23.52;;;;;;;4.13;82.22;103144.91;5056641;28;20025;-64
2022/01/26 09:40:29;;;;;;;63.03;24.35;;;;;;;4.04;83.48;103163.34;5038701;28;20063;-66
2022/01/26 09:42:56;;;;;;;60.63;23.60;;;;;;;4.07;82.92;103155.50;5056529;28;20083;-67
2022/01/26 09:45:21;;;;;;;60.17;23.77;;;;;;;4.04;83.46;103166.72;5056392;28;20062;-66
2022/01/26 09:47:46;;;;;;;62.63;23.90;;;;;;;4.14;82.98;103171.31;5038399;28;20079;-66
2022/01/26 09:50:12;;;;;;;62.67;23.17;;;;;;;4.15;82.74;103162.75;5056282;28;20017;-65
2022/01/26 09:52:44;;;;;;;60.70;24.10;;;;;;;4.02;82.58;103148.06;5056562;28;20095;-65
2022/01/26 09:55:10;;;;;;;53.83;22.58;;;;;;;4.07;83.19;103142.69;5038335;28;20035;-65
2022/01/26 09:57:36;;;;;;;52.67;20.35;;;;;;;4.16;82.67;103136.22;5038317;28;20036;-64
2022/01/26 10:00:04;;;;;;;50.30;20.65;;;;;;;4.05;83.12;103142.75;5056549;28;20021;-65
2022/01/26 10:02:32;;;;;;;53.97;20.85;;;;;;;4.06;83.16;103156.41;5055977;28;20033;-66
2022/01/26 10:04:59;;;;;;;54.22;21.05;;;;;;;4.19;83.44;103166.75;5055958;28;20475;-66
2022/01/26 10:15:37;;;;;;;49.85;19.90;;;;;;;4.39;83.29;103192.06;5056222;28;20415;-66
2022/01/26 10:18:14;;;;;;;50.67;19.17;;;;;;;4.36;82.07;103192.22;5055764;28;20021;-67
2022/01/26 10:20:49;;;;;;;54.85;20.85;;;;;;;4.44;83.06;103190.06;5056365;28;20033;-66
2022/01/26 10:23:26;;;;;;;63.63;21.58;;;;;;;4.41;82.63;103184.31;5056007;28;20029;-66
2022/01/26 10:26:14;;;;;;;49.67;19.95;;;;;;;4.48;82.79;103183.84;5056302;28;20464;-66
2022/01/26 10:28:49;;;;;;;48.53;18.95;;;;;;;4.48;81.49;103186.41;5055605;28;20100;-66
2022/01/26 10:31:28;;;;;;;50.30;19.45;;;;;;;4.45;82.90;103173.78;5055479;28;20036;-65
2022/01/26 10:34:00;;;;;;;52.63;19.92;;;;;;;4.52;82.51;103175.09;5055694;28;20163;-66
2022/01/26 10:36:33;;;;;;;55.17;19.38;;;;;;;4.48;82.79;103165.91;5055465;28;20024;-66
2022/01/26 10:39:22;;;;;;;53.45;20.27;;;;;;;4.65;81.16;103170.06;5037512;28;20029;-66
2022/01/26 10:41:51;;;;;;;51.78;19.77;;;;;;;4.68;82.00;103161.38;5036536;28;20025;-66
2022/01/26 10:44:18;;;;;;;46.10;19.92;;;;;;;4.78;80.97;103157.38;5055341;28;20104;-65
2022/01/26 10:46:44;;;;;;;43.97;18.88;;;;;;;4.91;80.74;103158.28;5055243;28;20051;-66
2022/01/26 10:56:50;;;;;;;55.90;20.77;;;;;;;4.97;81.89;103141.72;5054892;28;20061;-65
2022/01/26 10:59:17;;;;;;;53.58;20.55;;;;;;;5.24;80.02;103146.13;5054902;28;20096;-66
2022/01/26 11:01:43;;;;;;;57.47;21.17;;;;;;;5.19;79.83;103156.63;5037134;28;20112;-67
2022/01/26 11:04:09;;;;;;;52.65;20.20;;;;;;;5.14;80.16;103148.41;5037249;28;20078;-66
2022/01/26 11:06:40;;;;;;;50.10;21.58;;;;;;;5.32;80.11;103147.28;5054722;28;20029;-66
2022/01/26 11:09:13;;;;;;;53.58;20.13;;;;;;;5.27;79.25;103146.75;5055624;28;20479;-65
2022/01/26 11:11:42;;;;;;;60.08;21.42;;;;;;;4.95;80.10;103144.38;5036447;28;20021;-66
2022/01/26 11:14:22;;;;;;;54.83;21.35;;;;;;;5.11;80.94;103138.34;5036049;28;20391;-65
2022/01/26 11:17:00;;;;;;;55.38;20.38;;;;;;;5.18;80.51;103134.50;5054212;28;20071;-67
2022/01/26 11:19:26;;;;;;;56.63;20.42;;;;;;;4.85;80.09;103097.16;5036696;28;20028;-66
2022/01/26 11:21:51;;;;;;;54.38;20.80;;;;;;;5.23;79.54;103121.38;5054733;28;20024;-66
2022/01/26 11:24:23;;;;;;;54.55;20.83;;;;;;;5.19;79.91;103125.88;5054972;28;20378;-67
2022/01/26 11:27:01;;;;;;;67.63;20.83;;;;;;;5.25;79.48;103122.13;5054220;28;20471;-65
2022/01/26 11:29:33;;;;;;;48.17;20.60;;;;;;;5.10;80.22;103126.44;5054306;28;20044;-66
2022/01/26 11:32:23;;;;;;;49.40;20.02;;;;;;;4.98;80.45;103128.81;5054598;28;20044;-67
2022/01/26 11:34:51;;;;;;;53.30;19.65;;;;;;;5.20;79.59;103117.25;5054866;28;20021;-66
2022/01/26 11:37:25;;;;;;;55.78;19.92;;;;;;;5.26;80.09;103116.88;5054341;28;20031;-66
2022/01/26 11:45:05;;;;;;;53.40;20.05;;;;;;;5.50;79.61;103103.47;5054371;28;20147;-66
2022/01/26 11:45:35;;;;;;;52.10;20.52;;;;;;;5.48;79.28;103087.34;5055204;28;20392;-68
2022/01/26 11:48:05;;;;;;;56.25;20.17;;;;;;;5.58;79.26;103107.19;5036209;28;20695;-67
2022/01/26 11:50:31;;;;;;;45.40;19.67;;;;;;;5.46;79.75;103102.81;5036334;28;20523;-66
2022/01/26 11:53:08;;;;;;;59.75;20.75;;;;;;;5.41;79.17;103097.19;5053828;28;20120;-65
2022/01/26 11:55:47;;;;;;;63.08;19.85;;;;;;;5.42;79.04;103099.63;5036229;28;20025;-66
2022/01/26 11:58:17;;;;;;;52.10;20.08;;;;;;;5.72;78.50;103108.84;5036654;28;20071;-67
2022/01/26 12:00:58;;;;;;;49.70;19.92;;;;;;;5.72;79.04;103106.28;5036003;28;20053;-66
2022/01/26 12:03:32;;;;;;;46.67;19.80;;;;;;;5.78;78.06;103108.50;5035867;28;20078;-65
2022/01/26 12:05:59;;;;;;;45.60;18.83;;;;;;;5.57;78.93;103118.34;5053935;28;20047;-66
2022/01/26 12:08:37;;;;;;;45.20;19.65;;;;;;;5.69;80.08;103121.06;5035568;28;20415;-67
2022/01/26 12:11:04;;;;;;;48.15;19.48;;;;;;;5.78;78.70;103121.31;5053300;28;20025;-66
2022/01/26 12:13:31;;;;;;;48.30;19.98;;;;;;;5.68;79.39;103119.44;5053153;28;20498;-66
2022/01/26 12:16:06;;;;;;;47.67;19.95;;;;;;;5.67;80.01;103113.47;5052556;28;20052;-64
2022/01/26 12:18:40;;;;;;;43.03;19.55;;;;;;;5.79;79.03;103104.19;5034344;28;20108;-65
2022/01/26 12:33:25;;;;;;;46.45;19.98;;;;;;;5.73;78.44;103084.88;5054295;28;20090;-66
2022/01/26 12:35:54;;;;;;;46.90;19.33;;;;;;;5.75;78.18;103088.13;5053574;28;20035;-66
2022/01/26 12:38:44;;;;;;;43.13;18.65;;;;;;;5.92;78.09;103087.03;5053294;28;20444;-63
2022/01/26 12:41:54;;;;;;;42.60;19.75;;;;;;;5.76;78.49;103076.16;5053211;28;20426;-63
2022/01/26 12:44:07;;;;;;;44.30;19.55;;;;;;;6.03;78.40;103087.19;5042326;28;20035;-64
2022/01/26 12:46:35;;;;;;;45.90;19.60;;;;;;;6.14;77.86;103075.41;5054090;28;20406;-65
2022/01/26 12:49:26;;;;;;;53.22;20.02;;;;;;;5.96;78.71;103087.72;5053944;28;20028;-65
2022/01/26 12:51:54;;;;;;;44.28;18.30;;;;;;;5.99;78.02;103072.94;5053195;28;20113;-65
2022/01/26 12:54:20;;;;;;;46.92;18.95;;;;;;;6.03;77.90;103073.56;5052105;28;20036;-64
2022/01/26 12:56:46;;;;;;;44.42;19.30;;;;;;;6.15;77.96;103074.47;5053661;28;20079;-64
2022/01/26 12:59:16;;;;;;;42.83;19.52;;;;;;;6.09;78.29;103076.53;5052977;28;20021;-64
2022/01/26 13:01:42;;;;;;;45.85;18.85;;;;;;;6.29;77.78;103062.38;5034769;28;20024;-64
2022/01/26 13:04:10;;;;;;;41.42;19.58;;;;;;;6.13;77.68;103068.63;5052241;28;20033;-65
2022/01/26 13:06:40;;;;;;;40.22;18.48;;;;;;;6.18;77.54;103064.81;5038938;28;20075;-65
2022/01/26 13:09:21;;;;;;;42.58;17.27;;;;;;;5.96;79.26;103051.78;5056954;28;20032;-66
2022/01/26 13:11:51;;;;;;;41.60;19.10;;;;;;;6.05;78.72;103052.00;5057317;28;20045;-64
2022/01/26 13:41:23;;;;;;;36.10;17.45;;;;;;;6.32;78.73;103040.78;5056287;28;20029;-65
2022/01/26 13:44:32;;;;;;;36.05;17.15;;;;;;;6.27;79.09;103038.56;5056381;28;20035;-64
2022/01/26 13:52:53;;;;;;;37.20;17.00;;;;;;;6.37;79.02;103049.03;5056056;28;20033;-65
2022/01/26 13:57:46;;;;;;;42.22;17.83;;;;;;;6.36;80.53;103031.13;5055551;28;20044;-66
2022/01/26 14:00:16;;;;;;;41.83;16.83;;;;;;;6.42;79.34;103030.75;5037707;28;20059;-65
2022/01/26 14:02:41;;;;;;;34.67;15.90;;;;;;;6.47;78.43;103031.22;5038200;28;20025;-65
2022/01/26 14:05:08;;;;;;;36.83;17.13;;;;;;;6.45;78.87;103045.94;5055874;28;20019;-63
2022/01/26 14:07:33;;;;;;;40.67;16.77;;;;;;;6.19;79.21;103004.88;5055852;28;20052;-63